createdAt,value
2022-08-23T00:01:27.936Z,48.22
2022-08-23T00:03:59.829Z,46.33
2022-08-23T00:06:27.232Z,48.35
2022-08-23T00:08:54.299Z,48.70
2022-08-23T00:11:28.089Z,48.95
2022-08-23T00:13:55.513Z,48.78
2022-08-23T00:16:22.941Z,49.02
2022-08-23T00:18:50.200Z,49.38
2022-08-23T00:21:17.308Z,49.36
2022-08-23T00:23:44.170Z,49.33
2022-08-23T00:26:11.189Z,49.55
2022-08-23T00:28:38.114Z,49.59
2022-08-23T00:31:05.470Z,49.73
2022-08-23T00:33:32.580Z,50.17
2022-08-23T00:35:59.407Z,50.22
2022-08-23T00:38:31.785Z,49.65
2022-08-23T00:41:02.517Z,50.07
2022-08-23T00:43:56.293Z,49.74
2022-08-23T00:46:44.717Z,50.19
2022-08-23T00:49:12.921Z,50.43
2022-08-23T00:51:53.086Z,51.02
2022-08-23T00:54:22.348Z,52.08
2022-08-23T00:56:50.165Z,52.56
2022-08-23T00:59:17.300Z,53.56
2022-08-23T01:01:44.258Z,54.32
2022-08-23T01:04:12.373Z,54.34
2022-08-23T01:06:53.939Z,54.82
2022-08-23T01:09:22.300Z,54.57
2022-08-23T01:11:51.801Z,54.45
2022-08-23T01:14:31.288Z,54.99
2022-08-23T01:17:24.775Z,54.71
2022-08-23T01:20:00.563Z,55.77
2022-08-23T01:22:35.231Z,54.86
2022-08-23T01:25:08.954Z,54.62
2022-08-23T01:27:38.782Z,54.44
2022-08-23T01:30:08.083Z,54.70
2022-08-23T01:32:41.898Z,54.37
2022-08-23T01:35:09.272Z,54.93
2022-08-23T01:37:36.448Z,55.00
2022-08-23T01:40:05.018Z,54.55
2022-08-23T01:42:31.953Z,54.47
2022-08-23T01:44:58.764Z,54.65
2022-08-23T01:47:25.570Z,54.50
2022-08-23T01:49:52.368Z,54.43
2022-08-23T01:52:19.611Z,54.29
2022-08-23T01:54:46.792Z,54.79
2022-08-23T01:57:13.840Z,54.25
2022-08-23T01:59:42.671Z,54.80
2022-08-23T02:02:09.509Z,55.06
2022-08-23T02:04:36.340Z,55.05
2022-08-23T02:07:03.170Z,55.16
2022-08-23T02:09:32.062Z,55.05
2022-08-23T02:11:59.687Z,55.34
2022-08-23T02:14:26.518Z,55.37
2022-08-23T02:17:02.910Z,55.40
2022-08-23T02:19:32.561Z,55.76
2022-08-23T02:21:59.368Z,55.83
2022-08-23T02:24:26.488Z,56.14
2022-08-23T02:26:57.028Z,56.26
2022-08-23T02:29:25.629Z,56.58
2022-08-23T02:31:52.738Z,57.00
2022-08-23T02:34:20.653Z,56.82
2022-08-23T02:36:48.346Z,57.04
2022-08-23T02:39:19.396Z,56.99
2022-08-23T02:41:46.394Z,57.24
2022-08-23T02:44:14.153Z,57.26
2022-08-23T02:46:41.672Z,57.44
2022-08-23T02:49:08.830Z,57.69
2022-08-23T02:51:35.846Z,57.54
2022-08-23T02:54:02.878Z,57.90
2022-08-23T02:56:29.722Z,57.61
2022-08-23T02:58:56.507Z,58.02
2022-08-23T03:01:27.418Z,57.95
2022-08-23T03:03:54.366Z,58.38
2022-08-23T03:06:25.034Z,58.38
2022-08-23T03:08:53.628Z,56.85
2022-08-23T03:11:22.488Z,58.91
2022-08-23T03:13:50.726Z,58.80
2022-08-23T03:16:19.080Z,58.79
2022-08-23T03:18:46.900Z,58.77
2022-08-23T03:21:17.244Z,59.25
2022-08-23T03:23:44.202Z,59.29
2022-08-23T03:26:13.569Z,59.55
2022-08-23T03:28:42.216Z,59.34
2022-08-23T03:31:09.829Z,59.49
2022-08-23T03:33:37.335Z,59.40
2022-08-23T03:36:07.512Z,59.63
2022-08-23T03:38:34.921Z,60.00
2022-08-23T03:41:02.120Z,59.80
2022-08-23T03:43:29.163Z,60.08
2022-08-23T03:45:56.195Z,59.77
2022-08-23T03:48:23.338Z,59.81
2022-08-23T03:50:50.149Z,60.12
2022-08-23T03:53:24.168Z,59.72
2022-08-23T03:55:53.685Z,60.11
2022-08-23T03:58:21.789Z,59.75
2022-08-23T04:00:49.209Z,60.09
2022-08-23T04:03:16.419Z,59.68
2022-08-23T04:05:43.629Z,59.66
2022-08-23T04:08:11.710Z,59.99
2022-08-23T04:10:39.283Z,59.61
2022-08-23T04:13:09.392Z,59.46
2022-08-23T04:15:37.341Z,59.68
2022-08-23T04:18:05.085Z,59.79
2022-08-23T04:20:33.256Z,59.50
2022-08-23T04:23:00.186Z,59.41
2022-08-23T04:25:34.816Z,59.52
2022-08-23T04:28:02.904Z,59.27
2022-08-23T04:30:30.358Z,59.15
2022-08-23T04:32:57.429Z,59.32
2022-08-23T04:35:25.567Z,59.29
2022-08-23T04:37:53.560Z,58.92
2022-08-23T04:40:39.057Z,59.40
2022-08-23T04:43:07.044Z,59.08
2022-08-23T04:45:33.825Z,59.00
2022-08-23T04:48:00.807Z,59.26
2022-08-23T04:50:27.736Z,59.20
2022-08-23T04:52:54.569Z,59.06
2022-08-23T04:55:22.201Z,58.85
2022-08-23T04:57:49.090Z,58.91
2022-08-23T05:00:17.003Z,58.59
2022-08-23T05:02:43.921Z,58.71
2022-08-23T05:05:11.425Z,59.12
2022-08-23T05:07:42.839Z,58.81
2022-08-23T05:10:13.342Z,58.37
2022-08-23T05:12:40.913Z,58.47
2022-08-23T05:15:09.639Z,58.50
2022-08-23T05:17:37.091Z,58.31
2022-08-23T05:20:06.580Z,58.60
2022-08-23T05:22:34.413Z,58.14
2022-08-23T05:25:01.208Z,58.15
2022-08-23T05:27:28.235Z,58.26
2022-08-23T05:29:55.022Z,58.31
2022-08-23T05:32:22.900Z,57.89
2022-08-23T05:34:49.839Z,57.72
2022-08-23T05:37:17.870Z,57.89
2022-08-23T05:39:44.721Z,57.28
2022-08-23T05:42:16.153Z,57.62
2022-08-23T05:44:45.237Z,57.30
2022-08-23T05:47:15.505Z,56.64
2022-08-23T05:49:43.156Z,56.96
2022-08-23T05:52:14.987Z,56.82
2022-08-23T05:54:42.073Z,56.19
2022-08-23T05:57:10.574Z,56.68
2022-08-23T05:59:37.547Z,56.24
2022-08-23T06:02:04.630Z,56.20
2022-08-23T06:04:31.588Z,56.16
2022-08-23T06:06:59.035Z,56.06
2022-08-23T06:09:26.417Z,55.99
2022-08-23T06:11:53.405Z,55.79
2022-08-23T06:14:20.348Z,55.52
2022-08-23T06:16:52.574Z,55.16
2022-08-23T06:19:21.946Z,55.13
2022-08-23T06:21:49.606Z,54.86
2022-08-23T06:24:16.506Z,54.31
2022-08-23T06:26:45.373Z,54.88
2022-08-23T06:29:16.384Z,54.35
2022-08-23T06:31:49.303Z,54.33
2022-08-23T06:34:18.610Z,54.18
2022-08-23T06:36:51.525Z,54.41
2022-08-23T06:39:20.813Z,54.03
2022-08-23T06:41:50.358Z,53.51
2022-08-23T06:44:19.018Z,53.17
2022-08-23T06:46:48.752Z,52.94
2022-08-23T06:49:16.246Z,52.27
2022-08-23T06:51:46.293Z,52.25
2022-08-23T06:54:14.909Z,51.58
2022-08-23T06:56:43.630Z,52.07
2022-08-23T06:59:12.228Z,51.59
2022-08-23T07:01:46.939Z,51.38
2022-08-23T07:04:18.217Z,50.83
2022-08-23T07:06:45.966Z,50.78
2022-08-23T07:09:13.561Z,50.34
2022-08-23T07:11:41.236Z,50.12
2022-08-23T07:14:12.061Z,49.80
2022-08-23T07:16:41.946Z,49.69
2022-08-23T07:19:09.282Z,49.57
2022-08-23T07:21:37.325Z,49.29
2022-08-23T07:24:05.156Z,49.17
2022-08-23T07:26:32.735Z,48.98
2022-08-23T07:28:59.517Z,48.41
2022-08-23T07:31:30.774Z,47.88
2022-08-23T07:34:03.613Z,47.33
2022-08-23T07:36:32.976Z,47.33
2022-08-23T07:39:00.962Z,46.96
2022-08-23T07:41:32.832Z,46.46
2022-08-23T07:44:02.769Z,46.30
2022-08-23T07:46:31.314Z,46.14
2022-08-23T07:49:00.297Z,46.31
2022-08-23T07:51:29.575Z,46.28
2022-08-23T07:53:56.569Z,46.20
2022-08-23T07:56:23.657Z,45.86
2022-08-23T07:58:50.445Z,45.57
2022-08-23T08:01:24.650Z,44.60
2022-08-23T08:03:54.311Z,44.28
2022-08-23T08:06:26.007Z,44.35
2022-08-23T08:08:53.353Z,43.90
2022-08-23T08:11:24.265Z,43.92
2022-08-23T08:13:51.822Z,44.03
2022-08-23T08:16:31.242Z,44.05
2022-08-23T08:19:00.253Z,44.00
2022-08-23T08:21:28.824Z,44.13
2022-08-23T08:23:57.560Z,43.95
2022-08-23T08:26:26.019Z,43.70
2022-08-23T08:28:54.697Z,43.78
2022-08-23T08:31:21.849Z,43.17
2022-08-23T08:33:48.919Z,43.11
2022-08-23T08:36:35.333Z,43.12
2022-08-23T08:39:06.613Z,43.05
2022-08-23T08:41:39.039Z,42.99
2022-08-23T08:44:16.323Z,42.62
2022-08-23T08:46:50.234Z,42.59
2022-08-23T08:49:33.286Z,42.17
2022-08-23T08:52:08.646Z,41.93
2022-08-23T08:54:37.695Z,41.35
2022-08-23T08:57:07.882Z,40.96
2022-08-23T08:59:59.446Z,41.02
2022-08-23T09:02:32.603Z,40.54
2022-08-23T09:05:09.702Z,40.58
2022-08-23T09:07:46.079Z,39.27
2022-08-23T09:10:52.216Z,39.86
2022-08-23T09:13:55.702Z,39.48
2022-08-23T09:16:44.025Z,39.53
2022-08-23T09:19:11.229Z,39.03
2022-08-23T09:21:54.298Z,38.89
2022-08-23T09:24:21.245Z,38.95
2022-08-23T09:26:48.184Z,38.83
2022-08-23T09:29:18.808Z,38.79
2022-08-23T09:31:58.560Z,38.35
2022-08-23T09:34:31.161Z,38.30
2022-08-23T09:37:25.239Z,37.95
2022-08-23T09:40:13.505Z,37.65
2022-08-23T09:42:41.394Z,37.55
2022-08-23T09:45:35.453Z,37.52
2022-08-23T09:48:03.820Z,36.72
2022-08-23T09:50:42.293Z,36.33
2022-08-23T09:53:14.442Z,35.83
2022-08-23T09:55:54.446Z,35.33
2022-08-23T09:58:32.098Z,34.77
2022-08-23T10:01:19.179Z,34.25
2022-08-23T10:03:46.496Z,34.06
2022-08-23T10:06:31.054Z,33.53
2022-08-23T10:09:02.258Z,33.74
2022-08-23T10:11:32.599Z,33.45
2022-08-23T10:13:59.419Z,33.43
2022-08-23T10:16:40.063Z,32.39
2022-08-23T10:19:26.024Z,32.25
2022-08-23T10:22:18.258Z,31.94
2022-08-23T10:24:55.482Z,30.07
2022-08-23T10:27:59.760Z,29.24
2022-08-23T10:30:47.890Z,28.53
2022-08-23T10:33:35.112Z,27.71
2022-08-23T10:36:22.950Z,27.23
2022-08-23T10:38:57.636Z,27.35
2022-08-23T10:41:39.701Z,26.98
2022-08-23T10:44:54.207Z,26.17
2022-08-23T10:48:16.237Z,25.67
2022-08-23T10:51:22.690Z,25.11
2022-08-23T10:54:07.874Z,24.09
2022-08-23T10:56:36.461Z,23.20
2022-08-23T10:59:21.377Z,23.11
2022-08-23T11:01:53.793Z,22.14
2022-08-23T11:04:29.749Z,22.27
2022-08-23T11:06:59.259Z,22.28
2022-08-23T11:09:26.052Z,22.88
2022-08-23T11:12:11.412Z,23.43
2022-08-23T11:14:39.830Z,23.71
2022-08-23T11:17:23.596Z,23.15
2022-08-23T11:19:53.264Z,22.64
2022-08-23T11:22:23.888Z,20.82
2022-08-23T11:24:55.766Z,20.76
2022-08-23T11:27:28.701Z,20.97
2022-08-23T11:29:55.808Z,21.62
2022-08-23T11:32:42.998Z,22.55
2022-08-23T11:35:28.609Z,22.05
2022-08-23T11:38:05.920Z,22.23
2022-08-23T11:40:50.778Z,22.39
2022-08-23T11:43:29.809Z,23.00
2022-08-23T11:46:35.245Z,23.02
2022-08-23T11:49:20.586Z,22.59
2022-08-23T11:51:55.981Z,21.62
2022-08-23T11:54:56.189Z,22.07
2022-08-23T11:57:44.816Z,22.85
2022-08-23T12:00:55.780Z,23.25
2022-08-23T12:03:32.590Z,23.85
2022-08-23T12:06:08.440Z,23.80
2022-08-23T12:08:41.329Z,23.60
2022-08-23T12:11:10.662Z,23.04
2022-08-23T12:13:49.651Z,23.73
2022-08-23T12:16:17.720Z,24.03
2022-08-23T12:18:53.358Z,23.73
2022-08-23T12:21:43.087Z,22.74
2022-08-23T12:24:22.188Z,22.60
2022-08-23T12:27:24.141Z,22.49
2022-08-23T12:29:58.203Z,22.70
2022-08-23T12:33:04.858Z,23.05
2022-08-23T12:35:53.346Z,23.08
2022-08-23T12:38:58.470Z,23.00
2022-08-23T12:41:48.686Z,23.06
2022-08-23T12:44:19.358Z,23.12
2022-08-23T12:46:49.205Z,22.58
2022-08-23T12:49:29.476Z,22.68
2022-08-23T12:52:00.956Z,22.33
2022-08-23T12:54:43.651Z,22.13
2022-08-23T12:57:33.129Z,22.14
2022-08-23T13:00:18.467Z,21.37
2022-08-23T13:03:13.005Z,21.53
2022-08-23T13:05:45.985Z,22.37
2022-08-23T13:08:27.349Z,22.69
2022-08-23T13:11:07.674Z,22.39
2022-08-23T13:13:37.053Z,22.50
2022-08-23T13:16:26.871Z,22.58
2022-08-23T13:18:56.131Z,22.03
2022-08-23T13:21:23.033Z,21.33
2022-08-23T13:23:56.270Z,20.85
2022-08-23T13:26:43.736Z,20.96
2022-08-23T13:29:24.311Z,20.12
2022-08-23T13:32:03.445Z,20.02
2022-08-23T13:34:47.126Z,19.11
2022-08-23T13:37:21.305Z,18.97
2022-08-23T13:40:05.598Z,18.67
2022-08-23T13:43:01.294Z,18.54
2022-08-23T13:45:32.154Z,17.64
2022-08-23T13:48:10.740Z,18.89
2022-08-23T13:50:39.130Z,17.58
2022-08-23T13:53:15.674Z,18.20
2022-08-23T13:55:48.988Z,19.56
2022-08-23T13:58:31.084Z,20.05
2022-08-23T14:01:00.616Z,21.04
2022-08-23T14:03:29.199Z,21.75
2022-08-23T14:05:56.163Z,22.68
2022-08-23T14:08:23.583Z,22.86
2022-08-23T14:10:54.401Z,22.62
2022-08-23T14:13:28.291Z,22.63
2022-08-23T14:21:35.245Z,23.46
2022-08-23T14:24:02.281Z,23.15
2022-08-23T14:26:29.520Z,23.99
2022-08-23T14:28:56.476Z,24.18
2022-08-23T14:31:23.995Z,24.02
2022-08-23T14:33:50.853Z,24.00
2022-08-23T14:36:17.885Z,24.15
2022-08-23T14:38:44.693Z,24.97
2022-08-23T14:41:21.092Z,24.77
2022-08-23T14:43:52.845Z,25.08
2022-08-23T14:46:21.890Z,25.43
2022-08-23T14:48:48.782Z,25.71
2022-08-23T14:51:30.573Z,25.62
2022-08-23T14:53:57.368Z,25.49
2022-08-23T14:56:24.321Z,25.95
2022-08-23T14:58:53.222Z,25.67
2022-08-23T15:01:20.909Z,25.99
2022-08-23T15:03:49.449Z,26.52
2022-08-23T15:06:18.261Z,26.87
2022-08-23T15:08:45.672Z,27.01
2022-08-23T15:14:02.681Z,27.51
2022-08-23T15:16:30.033Z,27.45
2022-08-23T15:18:57.869Z,27.59
2022-08-23T15:21:24.755Z,27.86
2022-08-23T15:23:51.610Z,27.73
2022-08-23T15:26:24.530Z,28.09
2022-08-23T15:28:51.500Z,28.21
2022-08-23T15:31:19.901Z,27.85
2022-08-23T15:33:46.967Z,27.97
2022-08-23T15:36:16.066Z,28.61
2022-08-23T15:38:47.905Z,28.63
2022-08-23T15:41:16.585Z,29.35
2022-08-23T15:43:44.507Z,28.46
2022-08-23T15:46:22.825Z,28.81
2022-08-23T15:49:04.365Z,28.76
2022-08-23T15:51:32.126Z,28.73
2022-08-23T15:53:58.981Z,28.90
2022-08-23T15:56:34.016Z,29.06
2022-08-23T15:59:01.343Z,29.39
2022-08-23T16:01:33.588Z,29.04
2022-08-23T16:04:02.180Z,29.43
2022-08-23T16:06:32.206Z,29.52
2022-08-23T16:09:04.411Z,29.27
2022-08-23T16:11:31.894Z,29.79
2022-08-23T16:13:58.906Z,29.92
2022-08-23T16:16:31.071Z,29.67
2022-08-23T16:18:59.785Z,29.66
2022-08-23T16:21:29.413Z,30.10
2022-08-23T16:23:57.500Z,30.29
2022-08-23T16:26:34.763Z,30.38
2022-08-23T16:29:06.217Z,30.03
2022-08-23T16:31:39.144Z,30.15
2022-08-23T16:34:09.602Z,30.52
2022-08-23T16:36:37.048Z,30.69
2022-08-23T16:39:05.411Z,30.78
2022-08-23T16:41:32.448Z,31.02
2022-08-23T16:43:59.485Z,31.04
2022-08-23T16:46:27.433Z,30.97
2022-08-23T16:48:54.412Z,31.20
2022-08-23T16:51:22.268Z,31.60
2022-08-23T16:54:01.618Z,31.70
2022-08-23T16:56:34.155Z,31.66
2022-08-23T16:59:01.507Z,31.71
2022-08-23T17:01:29.847Z,31.81
2022-08-23T17:03:56.848Z,31.77
2022-08-23T17:06:23.657Z,31.86
2022-08-23T17:08:50.519Z,32.19
2022-08-23T17:11:19.640Z,32.40
2022-08-23T17:13:46.678Z,32.86
2022-08-23T17:16:13.663Z,32.90
2022-08-23T17:18:40.645Z,32.83
2022-08-23T17:21:09.133Z,33.24
2022-08-23T17:23:39.282Z,33.85
2022-08-23T17:26:09.573Z,33.68
2022-08-23T17:28:36.630Z,33.86
2022-08-23T17:31:03.980Z,34.48
2022-08-23T17:33:30.875Z,34.87
2022-08-23T17:35:57.937Z,34.72
2022-08-23T17:38:24.745Z,35.34
2022-08-23T17:40:52.331Z,36.03
2022-08-23T17:43:19.245Z,35.67
2022-08-23T17:45:48.792Z,36.12
2022-08-23T17:48:17.719Z,36.07
2022-08-23T17:50:46.179Z,36.10
2022-08-23T17:53:15.156Z,36.92
2022-08-23T17:55:43.015Z,36.63
2022-08-23T17:58:10.378Z,36.98
2022-08-23T18:00:39.353Z,37.29
2022-08-23T18:03:06.908Z,37.19
2022-08-23T18:05:34.906Z,37.44
2022-08-23T18:08:02.210Z,37.63
2022-08-23T18:10:30.161Z,37.94
2022-08-23T18:12:58.022Z,38.04
2022-08-23T18:15:25.318Z,38.29
2022-08-23T18:17:53.963Z,38.51
2022-08-23T18:20:29.068Z,38.31
2022-08-23T18:22:58.373Z,38.67
2022-08-23T18:25:26.648Z,38.73
2022-08-23T18:28:09.342Z,38.85
2022-08-23T18:30:38.937Z,39.17
2022-08-23T18:33:06.754Z,39.21
2022-08-23T18:35:34.685Z,39.42
2022-08-23T18:38:02.189Z,39.82
2022-08-23T18:40:29.939Z,39.73
2022-08-23T18:42:57.562Z,39.98
2022-08-23T18:45:24.481Z,40.29
2022-08-23T18:47:51.428Z,40.54
2022-08-23T18:50:18.706Z,40.50
2022-08-23T18:52:45.578Z,40.95
2022-08-23T18:55:12.416Z,40.70
2022-08-23T18:57:39.283Z,40.97
2022-08-23T19:00:09.675Z,41.05
2022-08-23T19:02:36.510Z,41.22
2022-08-23T19:05:04.078Z,41.55
2022-08-23T19:07:31.061Z,41.38
2022-08-23T19:09:57.982Z,41.62
2022-08-23T19:12:24.852Z,42.24
2022-08-23T19:14:54.890Z,42.48
2022-08-23T19:17:22.107Z,42.66
2022-08-23T19:19:49.135Z,42.90
2022-08-23T19:22:16.180Z,43.40
2022-08-23T19:24:43.322Z,43.17
2022-08-23T19:27:10.292Z,43.09
2022-08-23T19:29:37.237Z,42.65
2022-08-23T19:32:04.700Z,44.08
2022-08-23T19:34:31.717Z,44.97
2022-08-23T19:37:01.092Z,45.56
2022-08-23T19:39:29.486Z,46.58
2022-08-23T19:41:56.683Z,47.32
2022-08-23T19:44:23.773Z,48.51
2022-08-23T19:46:50.797Z,48.39
2022-08-23T19:49:18.015Z,48.57
2022-08-23T19:51:44.983Z,48.96
2022-08-23T19:54:13.177Z,49.02
2022-08-23T19:56:45.738Z,49.22
2022-08-23T19:59:17.294Z,49.84
2022-08-23T20:01:44.621Z,49.17
2022-08-23T20:04:12.002Z,50.54
2022-08-23T20:06:39.046Z,51.56
2022-08-23T20:09:07.137Z,51.54
2022-08-23T20:11:34.346Z,52.91
2022-08-23T20:14:01.461Z,53.60
2022-08-23T20:16:29.213Z,53.14
2022-08-23T20:18:56.094Z,52.10
2022-08-23T20:21:24.077Z,50.68
2022-08-23T20:24:06.669Z,49.07
2022-08-23T20:26:40.838Z,49.48
2022-08-23T20:29:13.685Z,48.35
2022-08-23T20:31:53.297Z,49.03
2022-08-23T20:34:20.700Z,48.41
2022-08-23T20:36:47.849Z,47.62
2022-08-23T20:39:19.276Z,47.56
2022-08-23T20:41:49.102Z,47.13
2022-08-23T20:44:16.160Z,47.85
2022-08-23T20:46:46.684Z,47.73
2022-08-23T20:49:14.741Z,49.06
2022-08-23T20:51:41.681Z,48.51
2022-08-23T20:54:11.305Z,48.07
2022-08-23T20:56:39.503Z,48.37
2022-08-23T20:59:07.951Z,47.25
2022-08-23T21:01:37.301Z,47.98
2022-08-23T21:04:07.141Z,46.98
2022-08-23T21:06:46.978Z,48.72
2022-08-23T21:09:19.258Z,46.10
2022-08-23T21:11:46.840Z,45.85
2022-08-23T21:14:15.408Z,46.51
2022-08-23T21:16:44.265Z,46.23
2022-08-23T21:19:11.544Z,47.19
2022-08-23T21:21:40.145Z,46.43
2022-08-23T21:24:08.272Z,47.14
2022-08-23T21:26:36.373Z,47.04
2022-08-23T21:29:04.296Z,46.36
2022-08-23T21:31:31.738Z,46.72
2022-08-23T21:34:00.537Z,47.34
2022-08-23T21:36:28.101Z,46.56
2022-08-23T21:38:54.918Z,47.23
2022-08-23T21:41:29.915Z,47.78
2022-08-23T21:43:56.833Z,48.10
2022-08-23T21:46:23.833Z,47.76
2022-08-23T21:48:50.721Z,49.21
2022-08-23T21:51:17.668Z,49.36
2022-08-23T21:53:44.589Z,48.61
2022-08-23T21:56:11.385Z,49.48
2022-08-23T21:58:38.250Z,49.92
2022-08-23T22:01:05.309Z,50.17
2022-08-23T22:03:32.708Z,50.36
2022-08-23T22:05:59.574Z,50.02
2022-08-23T22:08:26.361Z,51.63
2022-08-23T22:10:57.919Z,51.67
2022-08-23T22:13:28.846Z,51.79
2022-08-23T22:15:56.300Z,53.20
2022-08-23T22:18:23.382Z,53.27
2022-08-23T22:20:50.307Z,53.58
2022-08-23T22:23:17.408Z,53.34
2022-08-23T22:25:44.328Z,53.99
2022-08-23T22:28:11.226Z,53.96
2022-08-23T22:30:38.138Z,53.76
2022-08-23T22:33:05.124Z,53.92
2022-08-23T22:35:36.303Z,54.57
2022-08-23T22:38:13.819Z,54.10
2022-08-23T22:40:51.261Z,54.25
2022-08-23T22:43:19.341Z,54.06
2022-08-23T22:46:01.417Z,53.77
2022-08-23T22:48:31.575Z,53.80
2022-08-23T22:51:09.652Z,53.02
2022-08-23T22:53:39.284Z,53.66
2022-08-23T22:56:07.173Z,54.12
2022-08-23T22:58:34.668Z,54.09
2022-08-23T23:01:03.749Z,52.23
2022-08-23T23:03:36.740Z,53.40
2022-08-23T23:06:06.594Z,51.59
2022-08-23T23:08:33.486Z,51.14
2022-08-23T23:11:06.263Z,50.04
2022-08-23T23:13:34.483Z,49.97
2022-08-23T23:16:06.815Z,49.58
2022-08-23T23:18:34.418Z,49.36
2022-08-23T23:21:04.165Z,49.39
2022-08-23T23:23:32.798Z,49.40
2022-08-23T23:25:59.879Z,49.40
2022-08-23T23:28:27.569Z,50.15
2022-08-23T23:30:55.675Z,50.36
2022-08-23T23:33:23.322Z,50.09
2022-08-23T23:35:51.828Z,50.59
2022-08-23T23:38:18.930Z,51.46
2022-08-23T23:40:46.001Z,51.60
2022-08-23T23:43:13.357Z,51.77
2022-08-23T23:45:41.499Z,51.80
2022-08-23T23:48:09.572Z,51.78
2022-08-23T23:50:45.190Z,52.38
2022-08-23T23:53:14.599Z,52.85
2022-08-23T23:55:42.201Z,53.31
2022-08-23T23:58:09.204Z,54.28
